Time;durP1;ratioP1;P1;durP2;ratioP2;P2;SDS_P1;SDS_P2;PMS_P1;PMS_P2;Temp;Humidity;BMP_temperature;BMP_pressure;BME280_temperature;BME280_humidity;BME280_pressure;Samples;Min_cycle;Max_cycle;Signal;HPM_P1;HPM_P2
2021/03/17 00:01:54;;;;;;;18.77;13.55;;;4.20;99.90;;;;;;4145449;28;20500;-81
2021/03/17 00:03:57;;;;;;;18.55;13.52;;;4.20;99.90;;;;;;4142796;28;20030;-81
2021/03/17 00:05:59;;;;;;;17.83;12.35;;;4.10;99.90;;;;;;4146374;28;20037;-80
2021/03/17 00:08:00;;;;;;;19.40;13.13;;;4.10;99.90;;;;;;4147295;28;20034;-81
2021/03/17 00:10:02;;;;;;;19.42;11.90;;;4.00;99.90;;;;;;4147836;28;20030;-81
2021/03/17 00:12:03;;;;;;;18.90;11.00;;;4.00;99.90;;;;;;4146462;28;20056;-81
2021/03/17 00:14:04;;;;;;;17.50;10.48;;;4.00;99.90;;;;;;4148110;28;20127;-81
2021/03/17 00:16:05;;;;;;;13.82;9.93;;;4.00;99.90;;;;;;4146287;28;20030;-81
2021/03/17 00:18:08;;;;;;;13.05;9.10;;;3.90;99.90;;;;;;4147910;28;20026;-81
2021/03/17 00:20:10;;;;;;;17.60;9.85;;;4.00;99.90;;;;;;4147799;28;20420;-81
2021/03/17 00:22:10;;;;;;;16.15;9.75;;;4.00;99.90;;;;;;4141887;28;20049;-81
2021/03/17 00:24:11;;;;;;;14.68;9.80;;;4.00;99.90;;;;;;4147476;28;20030;-81
2021/03/17 00:26:12;;;;;;;15.23;9.65;;;4.10;99.90;;;;;;4148415;28;20026;-81
2021/03/17 00:28:13;;;;;;;17.83;10.50;;;4.00;99.90;;;;;;4145598;28;20501;-81
2021/03/17 00:30:14;;;;;;;15.43;10.00;;;4.10;99.90;;;;;;4147983;28;20540;-81
2021/03/17 00:32:15;;;;;;;16.98;11.05;;;4.10;99.90;;;;;;4144889;28;20042;-81
2021/03/17 00:34:16;;;;;;;15.48;10.52;;;4.10;99.90;;;;;;4146961;28;20122;-81
2021/03/17 00:36:16;;;;;;;16.33;10.43;;;4.10;99.90;;;;;;4139657;28;20085;-81
2021/03/17 00:38:17;;;;;;;17.80;10.57;;;4.10;99.90;;;;;;4145636;28;20034;-81
2021/03/17 00:40:19;;;;;;;16.73;11.57;;;4.10;99.90;;;;;;4146586;28;20038;-82
2021/03/17 00:42:19;;;;;;;16.00;10.70;;;4.10;99.90;;;;;;4147241;28;20038;-81
2021/03/17 00:44:20;;;;;;;14.82;9.75;;;4.10;99.90;;;;;;4146371;28;20531;-81
2021/03/17 00:46:20;;;;;;;13.95;8.38;;;4.10;99.90;;;;;;4146049;28;20522;-81
2021/03/17 00:48:22;;;;;;;16.17;11.07;;;4.10;99.90;;;;;;4145402;28;20072;-81
2021/03/17 00:50:24;;;;;;;16.88;10.75;;;4.00;99.90;;;;;;4146298;28;20033;-81
2021/03/17 00:52:25;;;;;;;14.13;10.18;;;3.90;99.90;;;;;;4145367;28;20034;-81
2021/03/17 00:54:25;;;;;;;15.15;9.60;;;3.90;99.90;;;;;;4148333;28;20076;-81
2021/03/17 00:56:26;;;;;;;14.57;9.73;;;3.90;99.90;;;;;;4147654;28;20057;-81
2021/03/17 00:58:27;;;;;;;13.10;9.15;;;3.90;99.90;;;;;;4143765;28;20126;-81
2021/03/17 01:00:27;;;;;;;12.77;8.70;;;3.90;99.90;;;;;;4135763;28;20046;-81
2021/03/17 01:02:28;;;;;;;14.57;9.68;;;3.90;99.90;;;;;;4142497;28;20033;-81
2021/03/17 01:04:28;;;;;;;15.95;10.25;;;3.90;99.90;;;;;;4144245;28;20451;-81
2021/03/17 01:06:29;;;;;;;15.85;10.70;;;3.90;99.90;;;;;;4146858;28;20093;-81
2021/03/17 01:08:30;;;;;;;15.43;10.63;;;4.00;99.90;;;;;;4145880;28;20121;-81
2021/03/17 01:10:40;;;;;;;14.80;10.48;;;4.00;99.90;;;;;;4144989;28;20030;-81
2021/03/17 01:12:42;;;;;;;14.43;9.55;;;4.00;99.90;;;;;;4143388;28;20037;-81
2021/03/17 01:14:43;;;;;;;17.80;11.10;;;4.00;99.90;;;;;;4143124;28;20092;-81
2021/03/17 01:16:44;;;;;;;17.38;11.23;;;4.10;99.90;;;;;;4137269;28;20030;-81
2021/03/17 01:18:45;;;;;;;14.63;9.75;;;4.10;99.90;;;;;;4143587;28;20087;-81
2021/03/17 01:20:48;;;;;;;16.85;10.50;;;4.10;99.90;;;;;;4147683;28;20095;-81
2021/03/17 01:22:49;;;;;;;13.30;9.57;;;4.20;99.90;;;;;;4147638;28;20477;-82
2021/03/17 01:24:49;;;;;;;12.85;9.15;;;4.20;99.90;;;;;;4145123;28;20038;-81
2021/03/17 01:26:50;;;;;;;16.83;10.63;;;4.20;99.90;;;;;;4146101;28;20041;-81
2021/03/17 01:28:51;;;;;;;16.20;10.40;;;4.20;99.90;;;;;;4146916;28;20037;-81
2021/03/17 01:30:56;;;;;;;14.40;9.73;;;4.20;99.90;;;;;;4147042;28;20545;-80
2021/03/17 01:32:56;;;;;;;13.48;8.88;;;4.30;99.90;;;;;;4147448;28;20037;-81
2021/03/17 01:34:57;;;;;;;12.70;8.75;;;4.30;99.90;;;;;;4147144;28;20030;-81
2021/03/17 01:36:58;;;;;;;15.77;9.50;;;4.30;99.90;;;;;;4148295;28;20116;-81
2021/03/17 01:38:58;;;;;;;15.52;9.75;;;4.30;99.90;;;;;;4147779;28;20045;-81
2021/03/17 01:40:59;;;;;;;14.77;9.15;;;4.30;99.90;;;;;;4148280;28;20084;-81
2021/03/17 01:43:00;;;;;;;11.15;8.68;;;4.40;99.90;;;;;;4148470;28;20054;-81
2021/03/17 01:45:03;;;;;;;13.13;8.32;;;4.40;99.90;;;;;;4146720;28;20117;-80
2021/03/17 01:47:04;;;;;;;12.50;8.93;;;4.40;99.90;;;;;;4149421;28;20046;-81
2021/03/17 01:49:05;;;;;;;12.27;9.45;;;4.40;99.90;;;;;;4143155;28;20114;-82
2021/03/17 01:51:06;;;;;;;10.63;8.82;;;4.50;99.90;;;;;;4148178;28;20062;-81
2021/03/17 01:53:21;;;;;;;13.77;9.15;;;4.50;99.90;;;;;;4147954;28;20038;-81
2021/03/17 01:55:24;;;;;;;11.00;8.02;;;4.50;99.90;;;;;;4148179;28;22550;-80
2021/03/17 01:57:24;;;;;;;9.90;7.97;;;4.50;99.90;;;;;;4147401;28;20513;-81
2021/03/17 01:59:26;;;;;;;9.07;7.57;;;4.60;99.90;;;;;;4145456;28;20084;-81
2021/03/17 02:01:27;;;;;;;10.30;7.53;;;4.60;99.90;;;;;;4160911;28;20057;-81
2021/03/17 02:03:28;;;;;;;8.95;7.70;;;4.60;99.90;;;;;;4140917;28;20022;-80
2021/03/17 02:05:33;;;;;;;9.75;7.78;;;4.60;99.90;;;;;;4145282;28;20068;-81
2021/03/17 02:07:33;;;;;;;9.95;8.30;;;4.60;99.90;;;;;;4145685;28;20132;-81
2021/03/17 02:09:34;;;;;;;6.88;5.50;;;4.50;99.90;;;;;;4152903;28;20046;-80
2021/03/17 02:11:42;;;;;;;9.60;6.43;;;4.60;99.90;;;;;;4149525;28;20037;-80
2021/03/17 02:14:23;;;;;;;7.15;6.30;;;4.60;99.90;;;;;;4148244;28;20092;-79
2021/03/17 02:16:29;;;;;;;9.45;6.75;;;4.60;99.90;;;;;;4142490;28;20037;-82
2021/03/17 02:18:53;;;;;;;9.27;7.43;;;4.50;99.90;;;;;;4148251;28;20113;-80
2021/03/17 02:21:15;;;;;;;7.93;6.47;;;4.60;99.90;;;;;;4146890;28;20038;-80
2021/03/17 02:23:44;;;;;;;8.48;6.50;;;4.50;99.90;;;;;;4142649;28;20065;-80
2021/03/17 02:25:54;;;;;;;9.25;6.15;;;4.50;99.90;;;;;;4147551;28;20018;-80
2021/03/17 02:28:28;;;;;;;7.00;5.70;;;4.50;99.90;;;;;;4148347;28;20030;-81
2021/03/17 02:30:54;;;;;;;8.10;6.22;;;4.50;99.90;;;;;;4147204;28;20029;-79
2021/03/17 02:33:36;;;;;;;8.35;6.10;;;4.60;99.90;;;;;;4149279;28;20121;-82
2021/03/17 02:35:41;;;;;;;8.10;7.03;;;4.50;99.90;;;;;;4149676;28;20022;-80
2021/03/17 02:37:45;;;;;;;9.55;6.20;;;4.50;99.90;;;;;;4151295;28;20030;-80
2021/03/17 02:39:57;;;;;;;8.70;6.88;;;4.40;99.90;;;;;;4161092;28;20092;-80
2021/03/17 02:42:19;;;;;;;8.55;6.60;;;4.50;99.90;;;;;;4144285;28;20043;-80
2021/03/17 02:44:22;;;;;;;9.07;7.28;;;4.50;99.90;;;;;;4148148;28;20030;-80
2021/03/17 02:46:26;;;;;;;9.82;7.18;;;4.40;99.90;;;;;;4148892;28;20465;-80
2021/03/17 02:48:41;;;;;;;11.70;7.47;;;4.50;99.90;;;;;;4148933;28;20105;-80
2021/03/17 02:50:45;;;;;;;8.48;7.38;;;4.50;99.90;;;;;;4151307;28;20115;-80
2021/03/17 02:52:52;;;;;;;9.25;8.23;;;4.50;99.90;;;;;;4147676;28;20116;-80
2021/03/17 02:54:53;;;;;;;11.55;8.20;;;4.50;99.90;;;;;;4148410;28;20469;-80
2021/03/17 02:57:06;;;;;;;8.98;7.28;;;4.50;99.90;;;;;;4151225;28;20080;-80
2021/03/17 02:59:09;;;;;;;8.32;7.53;;;4.50;99.90;;;;;;4145003;28;20034;-79
2021/03/17 03:01:14;;;;;;;7.80;6.45;;;4.50;99.90;;;;;;4151433;28;20026;-80
2021/03/17 03:03:16;;;;;;;10.70;7.00;;;4.60;99.90;;;;;;4145383;28;20022;-81
2021/03/17 03:05:18;;;;;;;8.35;6.07;;;4.60;99.90;;;;;;4151167;28;20049;-81
2021/03/17 03:07:23;;;;;;;9.77;6.60;;;4.60;99.90;;;;;;4147238;28;20034;-80
2021/03/17 03:09:26;;;;;;;9.38;6.50;;;4.60;99.90;;;;;;4151007;28;20411;-80
2021/03/17 03:11:27;;;;;;;7.32;5.80;;;4.60;99.90;;;;;;4153548;28;20038;-80
2021/03/17 03:13:28;;;;;;;8.45;6.00;;;4.60;99.90;;;;;;4149937;28;20451;-80
2021/03/17 03:15:30;;;;;;;7.60;6.80;;;4.60;99.90;;;;;;4153008;28;20042;-80
2021/03/17 03:17:32;;;;;;;7.88;6.38;;;4.60;99.90;;;;;;4151529;28;20116;-80
2021/03/17 03:19:48;;;;;;;7.50;5.97;;;4.60;99.90;;;;;;4150536;28;20026;-80
2021/03/17 03:21:51;;;;;;;7.53;6.43;;;4.60;99.90;;;;;;4151274;28;20495;-81
2021/03/17 03:23:54;;;;;;;7.03;5.70;;;4.60;99.90;;;;;;4143843;28;20068;-80
2021/03/17 03:25:56;;;;;;;6.45;5.57;;;4.60;99.90;;;;;;4151052;28;20026;-80
2021/03/17 03:28:10;;;;;;;6.35;5.53;;;4.70;99.90;;;;;;4148043;28;20033;-80
2021/03/17 03:30:22;;;;;;;8.52;5.93;;;4.70;99.90;;;;;;4153061;28;20037;-80
2021/03/17 03:32:23;;;;;;;8.18;5.80;;;4.60;99.90;;;;;;4140218;28;20120;-80
2021/03/17 03:34:23;;;;;;;7.55;6.22;;;4.60;99.90;;;;;;4152367;28;20057;-80
2021/03/17 03:36:26;;;;;;;7.43;5.95;;;4.60;99.90;;;;;;4148573;28;20026;-80
2021/03/17 03:38:27;;;;;;;7.60;6.20;;;4.60;99.90;;;;;;4152708;28;20033;-80
2021/03/17 03:40:28;;;;;;;11.93;6.70;;;4.60;99.90;;;;;;4150931;28;20038;-79
2021/03/17 03:42:28;;;;;;;7.40;6.65;;;4.60;99.90;;;;;;4153130;28;20041;-80
2021/03/17 03:44:29;;;;;;;6.82;6.15;;;4.70;99.90;;;;;;4152576;28;20157;-80
2021/03/17 03:46:30;;;;;;;7.38;6.40;;;4.70;99.90;;;;;;4150574;28;20041;-80
2021/03/17 03:48:31;;;;;;;6.93;6.00;;;4.60;99.90;;;;;;4144305;28;20072;-79
2021/03/17 03:50:37;;;;;;;7.68;6.38;;;4.60;99.90;;;;;;4153357;28;20444;-80
2021/03/17 03:53:05;;;;;;;6.85;6.15;;;4.60;99.90;;;;;;4153800;28;20044;-79
2021/03/17 03:55:21;;;;;;;9.77;6.20;;;4.60;99.90;;;;;;4150689;28;20045;-80
2021/03/17 03:57:27;;;;;;;6.40;5.68;;;4.60;99.90;;;;;;4142188;28;20068;-80
2021/03/17 03:59:31;;;;;;;6.78;6.18;;;4.60;99.90;;;;;;4152630;28;20038;-79
2021/03/17 04:01:47;;;;;;;6.10;5.50;;;4.60;99.90;;;;;;4147401;28;20042;-80
2021/03/17 04:03:55;;;;;;;6.32;5.72;;;4.70;99.90;;;;;;4145477;28;20033;-80
2021/03/17 04:05:56;;;;;;;6.13;5.53;;;4.70;99.90;;;;;;4152943;28;20117;-79
2021/03/17 04:08:00;;;;;;;6.90;6.20;;;4.80;99.90;;;;;;4151821;28;20049;-80
2021/03/17 04:10:05;;;;;;;8.18;6.47;;;4.80;99.90;;;;;;4151897;28;20034;-80
2021/03/17 04:12:07;;;;;;;6.88;5.57;;;4.80;99.90;;;;;;4153156;28;20536;-80
2021/03/17 04:14:09;;;;;;;7.03;6.32;;;4.80;99.90;;;;;;4154544;28;20274;-80
2021/03/17 04:16:12;;;;;;;9.75;6.75;;;4.70;99.90;;;;;;4150716;28;20057;-79
2021/03/17 04:18:15;;;;;;;9.98;6.70;;;4.70;99.90;;;;;;4151284;28;20116;-80
2021/03/17 04:20:20;;;;;;;7.00;5.97;;;4.70;99.90;;;;;;4141816;28;20041;-80
2021/03/17 04:22:22;;;;;;;8.05;5.53;;;4.80;99.90;;;;;;4147973;28;20054;-80
2021/03/17 04:24:23;;;;;;;7.38;6.15;;;4.80;99.90;;;;;;4143783;28;20527;-80
2021/03/17 04:26:26;;;;;;;8.80;6.45;;;4.80;99.90;;;;;;4147632;28;20157;-80
2021/03/17 04:28:28;;;;;;;9.43;5.73;;;4.70;99.90;;;;;;4150855;28;20046;-80
2021/03/17 04:30:30;;;;;;;6.43;5.82;;;4.70;99.90;;;;;;4152967;28;20054;-80
2021/03/17 04:32:33;;;;;;;8.60;5.90;;;4.70;99.90;;;;;;4151867;28;20037;-80
2021/03/17 04:34:34;;;;;;;8.15;6.05;;;4.70;99.90;;;;;;4143159;28;20095;-80
2021/03/17 04:36:36;;;;;;;9.48;5.85;;;4.70;99.90;;;;;;4151866;28;20037;-80
2021/03/17 04:38:37;;;;;;;5.13;4.25;;;4.70;99.90;;;;;;4152081;28;20037;-79
2021/03/17 04:40:39;;;;;;;6.38;4.93;;;4.70;99.90;;;;;;4153105;28;20037;-80
2021/03/17 04:42:41;;;;;;;5.38;4.65;;;4.70;99.90;;;;;;4152242;28;20048;-80
2021/03/17 04:44:42;;;;;;;6.30;5.03;;;4.70;99.90;;;;;;4165036;28;20117;-79
2021/03/17 04:46:43;;;;;;;8.20;5.28;;;4.70;99.90;;;;;;4150278;28;20041;-80
2021/03/17 04:48:46;;;;;;;5.65;4.55;;;4.80;99.90;;;;;;4152464;28;20026;-79
2021/03/17 04:50:49;;;;;;;5.20;4.70;;;4.80;99.90;;;;;;4154284;28;20397;-80
2021/03/17 04:52:50;;;;;;;5.53;5.03;;;4.80;99.90;;;;;;4152015;28;20053;-80
2021/03/17 04:54:54;;;;;;;8.77;4.65;;;4.70;99.90;;;;;;4152700;28;20045;-80
2021/03/17 04:56:56;;;;;;;5.93;4.68;;;4.70;99.90;;;;;;4151674;28;20104;-80
2021/03/17 04:59:00;;;;;;;7.25;4.25;;;4.70;99.90;;;;;;4147040;28;20036;-80
2021/03/17 05:01:06;;;;;;;4.28;3.88;;;4.80;99.90;;;;;;4148221;28;20026;-79
2021/03/17 05:03:11;;;;;;;5.70;3.47;;;4.80;99.90;;;;;;4138696;28;20097;-79
2021/03/17 05:05:13;;;;;;;6.93;3.83;;;4.90;99.90;;;;;;4136685;28;20041;-80
2021/03/17 05:07:14;;;;;;;4.60;3.28;;;4.80;99.90;;;;;;4151504;28;20038;-80
2021/03/17 05:09:18;;;;;;;3.97;3.17;;;4.80;99.90;;;;;;4146561;28;20027;-80
2021/03/17 05:11:20;;;;;;;4.72;3.47;;;4.80;99.90;;;;;;4147981;28;20037;-79
2021/03/17 05:13:20;;;;;;;4.65;3.53;;;4.80;99.90;;;;;;4146983;28;20029;-80
2021/03/17 05:15:23;;;;;;;6.53;3.45;;;4.80;99.90;;;;;;4149867;28;20053;-80
2021/03/17 05:17:23;;;;;;;3.90;3.25;;;4.80;99.90;;;;;;4150469;28;20141;-80
2021/03/17 05:19:24;;;;;;;3.58;2.83;;;4.80;99.90;;;;;;4151935;28;20022;-80
2021/03/17 05:21:27;;;;;;;6.63;3.83;;;4.80;99.90;;;;;;4148510;28;20053;-80
2021/03/17 05:23:27;;;;;;;8.75;3.30;;;4.70;99.90;;;;;;4140863;28;20031;-80
2021/03/17 05:25:31;;;;;;;4.22;3.33;;;4.70;99.90;;;;;;4147856;28;20033;-80
2021/03/17 05:27:33;;;;;;;5.90;3.22;;;4.80;99.90;;;;;;4154011;28;20500;-80
2021/03/17 05:29:34;;;;;;;7.43;3.30;;;4.80;99.90;;;;;;4162160;28;20032;-80
2021/03/17 05:31:36;;;;;;;6.80;3.20;;;4.80;99.90;;;;;;4150329;28;20076;-80
2021/03/17 05:33:38;;;;;;;7.68;3.65;;;4.70;99.90;;;;;;4150120;28;20034;-80
2021/03/17 05:35:39;;;;;;;6.85;3.17;;;4.70;99.90;;;;;;4146049;28;20093;-79
2021/03/17 05:37:41;;;;;;;5.70;4.47;;;4.70;99.90;;;;;;4144845;28;20474;-80
2021/03/17 05:39:42;;;;;;;6.18;3.47;;;4.80;99.90;;;;;;4143884;28;20038;-80
2021/03/17 05:41:43;;;;;;;3.65;3.17;;;4.80;99.90;;;;;;4143893;28;20038;-80
2021/03/17 05:43:43;;;;;;;6.07;3.72;;;4.80;99.90;;;;;;4144066;28;20033;-80
2021/03/17 05:45:48;;;;;;;4.30;3.60;;;4.70;99.90;;;;;;4143057;28;20035;-80
2021/03/17 05:47:50;;;;;;;5.70;3.35;;;4.80;99.90;;;;;;4147754;28;20044;-80
2021/03/17 05:49:52;;;;;;;8.93;4.53;;;4.80;99.90;;;;;;4146054;28;20030;-80
2021/03/17 05:51:54;;;;;;;5.10;3.92;;;4.70;99.90;;;;;;4145609;28;20054;-80
2021/03/17 05:53:55;;;;;;;4.65;3.90;;;4.70;99.90;;;;;;4147668;28;20038;-79
2021/03/17 05:56:01;;;;;;;9.90;4.63;;;4.70;99.90;;;;;;4143533;28;20039;-79
2021/03/17 05:58:02;;;;;;;5.68;4.60;;;4.70;99.90;;;;;;4141063;28;20493;-79
2021/03/17 06:00:24;;;;;;;6.57;4.45;;;4.80;99.90;;;;;;4150111;28;20536;-80
2021/03/17 06:02:25;;;;;;;5.18;4.35;;;4.80;99.90;;;;;;4139216;28;20539;-79
2021/03/17 06:04:27;;;;;;;6.95;5.18;;;4.80;99.90;;;;;;4144253;28;20087;-79
2021/03/17 06:06:29;;;;;;;6.20;4.70;;;4.80;99.90;;;;;;4149501;28;20567;-79
2021/03/17 06:08:37;;;;;;;6.72;4.38;;;4.80;99.90;;;;;;4141215;28;20117;-80
2021/03/17 06:10:38;;;;;;;5.38;4.47;;;4.80;99.90;;;;;;4138700;28;20038;-79
2021/03/17 06:12:39;;;;;;;9.70;4.97;;;4.80;99.90;;;;;;4149706;28;20034;-80
2021/03/17 06:14:43;;;;;;;6.85;4.80;;;4.80;99.90;;;;;;4144182;28;20227;-79
2021/03/17 06:16:45;;;;;;;6.43;5.50;;;4.80;99.90;;;;;;4150392;28;20519;-79
2021/03/17 06:18:51;;;;;;;8.35;5.72;;;4.80;99.90;;;;;;4146302;28;20041;-81
2021/03/17 06:20:52;;;;;;;6.43;5.32;;;4.80;99.90;;;;;;4141138;28;20034;-78
2021/03/17 06:22:54;;;;;;;5.80;5.15;;;4.90;99.90;;;;;;4147700;28;20042;-80
2021/03/17 06:24:56;;;;;;;7.00;5.15;;;4.90;99.90;;;;;;4142721;28;20052;-79
2021/03/17 06:26:58;;;;;;;5.43;4.90;;;4.90;99.90;;;;;;4149187;28;20449;-79
2021/03/17 06:28:59;;;;;;;9.75;5.07;;;4.90;99.90;;;;;;4146592;28;20053;-79
2021/03/17 06:30:59;;;;;;;7.05;5.70;;;4.90;99.90;;;;;;4140550;28;20034;-80
2021/03/17 06:33:00;;;;;;;5.63;4.88;;;4.90;99.90;;;;;;4162135;28;20072;-79
2021/03/17 06:35:01;;;;;;;6.47;5.07;;;4.90;99.90;;;;;;4148604;28;20606;-80
2021/03/17 06:37:01;;;;;;;6.63;4.70;;;5.00;99.90;;;;;;4141724;28;20496;-79
2021/03/17 06:39:09;;;;;;;5.60;4.93;;;5.00;99.90;;;;;;4148201;28;20045;-80
2021/03/17 06:41:11;;;;;;;5.07;4.57;;;5.00;99.90;;;;;;4146946;28;20626;-80
2021/03/17 06:43:13;;;;;;;8.77;5.10;;;5.00;99.90;;;;;;4141088;28;20034;-79
2021/03/17 06:45:14;;;;;;;6.90;4.85;;;5.00;99.90;;;;;;4149007;28;20041;-82
2021/03/17 06:47:20;;;;;;;8.07;4.90;;;5.00;99.90;;;;;;4143820;28;20056;-80
2021/03/17 06:49:39;;;;;;;5.57;4.30;;;5.10;99.90;;;;;;4149139;28;20030;-82
2021/03/17 06:51:39;;;;;;;7.30;4.00;;;5.00;99.90;;;;;;4141748;28;20417;-83
2021/03/17 06:53:44;;;;;;;6.47;4.32;;;4.90;99.90;;;;;;4159046;28;20034;-80
2021/03/17 06:55:44;;;;;;;5.68;4.40;;;4.90;99.90;;;;;;4142839;28;20061;-81
2021/03/17 06:57:47;;;;;;;6.32;4.22;;;4.90;99.90;;;;;;4146208;28;20085;-81
2021/03/17 06:59:47;;;;;;;4.83;4.33;;;4.90;99.90;;;;;;4145876;28;20088;-81
2021/03/17 07:01:49;;;;;;;5.65;3.72;;;5.00;99.90;;;;;;4147566;28;20034;-81
2021/03/17 07:04:12;;;;;;;4.65;4.22;;;5.00;99.90;;;;;;4163979;28;20033;-79
2021/03/17 07:06:13;;;;;;;5.40;4.05;;;5.00;99.90;;;;;;4141125;28;20032;-81
2021/03/17 07:08:26;;;;;;;5.40;4.28;;;5.00;99.90;;;;;;4145380;28;20040;-80
2021/03/17 07:10:32;;;;;;;6.93;4.25;;;5.00;99.90;;;;;;4161104;28;20018;-81
2021/03/17 07:12:33;;;;;;;7.40;4.60;;;5.00;99.90;;;;;;4146193;28;20036;-80
2021/03/17 07:14:38;;;;;;;5.28;4.75;;;5.00;99.90;;;;;;4148391;28;20084;-81
2021/03/17 07:16:46;;;;;;;5.57;5.07;;;5.10;99.90;;;;;;4144415;28;20041;-80
2021/03/17 07:18:47;;;;;;;4.60;4.20;;;5.10;99.90;;;;;;4146648;28;20053;-81
2021/03/17 07:20:50;;;;;;;6.82;4.70;;;5.10;99.90;;;;;;4140647;28;20460;-82
2021/03/17 07:22:51;;;;;;;;;;;5.10;99.90;;;;;;4145776;28;20073;-80
2021/03/17 07:25:03;;;;;;;5.93;4.47;;;5.20;99.90;;;;;;4145040;28;19914;-81
2021/03/17 07:27:26;;;;;;;7.55;4.35;;;5.30;99.90;;;;;;4144766;28;20057;-81
2021/03/17 07:29:26;;;;;;;6.00;4.70;;;5.30;99.90;;;;;;4143628;28;20124;-81
2021/03/17 07:31:36;;;;;;;8.05;3.75;;;5.30;99.90;;;;;;4142628;28;20038;-81
2021/03/17 07:33:37;;;;;;;6.30;4.65;;;5.30;99.90;;;;;;4144413;28;20034;-80
2021/03/17 07:35:38;;;;;;;4.70;3.83;;;5.30;99.90;;;;;;4143710;28;20532;-81
2021/03/17 07:37:39;;;;;;;10.00;4.28;;;5.30;99.90;;;;;;4148635;28;20030;-81
2021/03/17 07:39:42;;;;;;;5.15;3.58;;;5.30;99.90;;;;;;4145874;28;20129;-80
2021/03/17 07:41:43;;;;;;;6.40;3.72;;;5.20;99.90;;;;;;4145202;28;20042;-81
2021/03/17 07:43:44;;;;;;;5.55;4.28;;;5.30;99.90;;;;;;4148442;28;20057;-81
2021/03/17 07:45:45;;;;;;;4.32;3.60;;;5.20;99.90;;;;;;4145907;28;20417;-80
2021/03/17 07:47:46;;;;;;;6.82;3.95;;;5.20;99.90;;;;;;4145888;28;20370;-80
2021/03/17 07:49:48;;;;;;;5.30;3.70;;;5.10;99.90;;;;;;4143658;28;20555;-80
2021/03/17 07:51:53;;;;;;;3.25;2.95;;;5.10;99.90;;;;;;4145390;28;20421;-80
2021/03/17 07:53:57;;;;;;;3.88;3.05;;;5.20;99.90;;;;;;4146933;28;20124;-79
2021/03/17 07:55:58;;;;;;;5.80;3.05;;;5.30;99.90;;;;;;4139629;28;20104;-79
2021/03/17 07:58:00;;;;;;;5.80;4.18;;;5.30;99.90;;;;;;4143406;28;20030;-79
2021/03/17 08:00:03;;;;;;;4.90;2.70;;;5.30;99.90;;;;;;4146107;28;20037;-79
2021/03/17 08:02:04;;;;;;;4.40;3.10;;;5.30;99.90;;;;;;4141601;28;20037;-81
2021/03/17 08:04:06;;;;;;;6.90;2.78;;;5.30;99.90;;;;;;4142929;28;20034;-80
2021/03/17 08:06:07;;;;;;;8.73;3.00;;;5.40;99.90;;;;;;4128839;28;20057;-80
2021/03/17 08:08:09;;;;;;;4.82;2.78;;;5.50;99.90;;;;;;4145057;28;20038;-80
2021/03/17 08:10:11;;;;;;;6.77;3.40;;;5.60;99.90;;;;;;4146790;28;20436;-78
2021/03/17 08:12:13;;;;;;;7.95;3.80;;;5.60;99.90;;;;;;4143626;28;20088;-79
2021/03/17 08:14:14;;;;;;;5.47;2.90;;;5.50;99.90;;;;;;4143077;28;20041;-80
2021/03/17 08:16:20;;;;;;;3.28;2.90;;;5.50;99.90;;;;;;4143283;28;20470;-81
2021/03/17 08:18:32;;;;;;;6.93;4.03;;;5.50;99.90;;;;;;4139562;28;20060;-81
2021/03/17 08:20:33;;;;;;;6.72;3.28;;;5.50;99.90;;;;;;4155777;28;20140;-82
2021/03/17 08:22:37;;;;;;;5.00;3.40;;;5.70;99.90;;;;;;4141306;28;20562;-81
2021/03/17 08:24:39;;;;;;;6.47;2.85;;;5.90;99.90;;;;;;4144310;28;20133;-81
2021/03/17 08:26:44;;;;;;;3.67;3.17;;;6.00;99.90;;;;;;4141606;28;20046;-81
2021/03/17 08:28:53;;;;;;;7.00;3.08;;;6.10;99.90;;;;;;4140097;28;20501;-80
2021/03/17 08:30:58;;;;;;;4.47;3.10;;;6.10;99.90;;;;;;4144385;28;20485;-81
2021/03/17 08:33:02;;;;;;;4.10;3.25;;;6.10;99.90;;;;;;4136794;28;20440;-82
2021/03/17 08:35:03;;;;;;;3.42;2.85;;;6.20;99.90;;;;;;4136480;28;20390;-80
2021/03/17 08:37:09;;;;;;;6.85;3.30;;;6.40;99.90;;;;;;4143717;28;20118;-80
2021/03/17 08:39:10;;;;;;;6.88;2.70;;;6.50;99.90;;;;;;4145216;28;20029;-79
2021/03/17 08:41:11;;;;;;;7.47;3.22;;;6.60;99.90;;;;;;4145426;28;20421;-80
2021/03/17 08:43:37;;;;;;;5.32;3.00;;;6.60;99.90;;;;;;4144788;28;20041;-80
2021/03/17 08:45:42;;;;;;;4.32;3.17;;;6.70;99.90;;;;;;4139789;28;20127;-81
2021/03/17 08:47:46;;;;;;;3.83;2.85;;;6.80;99.90;;;;;;4134246;28;20046;-80
2021/03/17 08:49:51;;;;;;;;;;;6.90;99.90;;;;;;4139745;28;20464;-80
2021/03/17 08:51:51;;;;;;;6.13;2.78;;;6.90;99.90;;;;;;4138852;28;19918;-79
2021/03/17 08:53:52;;;;;;;6.63;2.50;;;6.90;99.90;;;;;;4144089;28;20129;-79
2021/03/17 08:55:53;;;;;;;5.53;3.17;;;6.80;99.90;;;;;;4141564;28;20048;-79
2021/03/17 08:58:04;;;;;;;7.03;2.75;;;6.70;99.90;;;;;;4141341;28;20049;-81
2021/03/17 09:00:06;;;;;;;4.90;2.80;;;6.60;99.90;;;;;;4143655;28;20524;-81
2021/03/17 09:02:30;;;;;;;4.93;2.95;;;6.40;99.90;;;;;;4143198;28;20034;-79
2021/03/17 09:04:46;;;;;;;5.40;2.75;;;6.40;99.90;;;;;;4125548;28;20053;-79
2021/03/17 09:07:06;;;;;;;6.50;2.75;;;6.50;99.90;;;;;;4138261;28;20117;-80
2021/03/17 09:09:17;;;;;;;12.07;2.92;;;6.60;99.90;;;;;;4143172;28;20412;-80
2021/03/17 09:11:30;;;;;;;6.88;2.80;;;6.90;99.90;;;;;;4142437;28;20023;-80
2021/03/17 09:13:51;;;;;;;5.20;3.20;;;7.00;99.90;;;;;;4143650;28;20135;-79
2021/03/17 09:15:52;;;;;;;4.97;2.72;;;7.00;99.90;;;;;;4144324;28;20088;-80
2021/03/17 09:17:57;;;;;;;6.13;3.00;;;7.10;99.90;;;;;;4141059;28;20121;-80
2021/03/17 09:20:08;;;;;;;5.85;2.63;;;7.30;99.90;;;;;;4141904;28;20022;-80
2021/03/17 09:22:32;;;;;;;4.82;2.83;;;7.50;99.90;;;;;;4140839;28;20042;-80
2021/03/17 09:24:34;;;;;;;7.57;2.78;;;7.60;99.90;;;;;;4142503;28;20042;-80
2021/03/17 09:26:35;;;;;;;7.85;3.38;;;7.40;99.90;;;;;;4142707;28;20106;-80
2021/03/17 09:28:35;;;;;;;5.13;2.55;;;7.30;99.90;;;;;;4145688;28;20037;-81
2021/03/17 09:30:43;;;;;;;7.18;3.38;;;7.10;99.90;;;;;;4140157;28;20045;-79
2021/03/17 09:32:44;;;;;;;8.65;3.13;;;7.00;99.90;;;;;;4136050;28;20037;-80
2021/03/17 09:34:46;;;;;;;7.25;2.97;;;6.80;99.90;;;;;;4135821;28;20425;-80
2021/03/17 09:36:47;;;;;;;7.50;3.92;;;6.80;99.90;;;;;;4133961;28;20038;-80
2021/03/17 09:38:53;;;;;;;5.32;3.25;;;6.80;99.90;;;;;;4133749;28;20135;-80
2021/03/17 09:40:57;;;;;;;7.47;3.13;;;6.80;99.90;;;;;;4140096;28;20064;-82
2021/03/17 09:42:58;;;;;;;3.15;2.60;;;6.80;99.90;;;;;;4139186;28;20038;-79
2021/03/17 09:44:59;;;;;;;7.78;4.28;;;6.90;99.90;;;;;;4142924;28;20041;-80
2021/03/17 09:46:59;;;;;;;6.13;2.80;;;7.00;99.90;;;;;;4140577;28;20038;-80
2021/03/17 09:49:08;;;;;;;6.57;2.80;;;7.40;99.90;;;;;;4144660;28;20096;-81
2021/03/17 09:51:16;;;;;;;6.90;2.78;;;7.80;99.90;;;;;;4140298;28;20061;-80
2021/03/17 09:53:16;;;;;;;7.13;3.00;;;8.00;99.90;;;;;;4138476;28;20105;-81
2021/03/17 09:55:28;;;;;;;4.03;2.83;;;8.10;99.90;;;;;;4138026;28;20104;-80
2021/03/17 09:57:29;;;;;;;4.38;3.47;;;8.50;99.90;;;;;;4140209;28;20030;-80
2021/03/17 09:59:39;;;;;;;8.55;2.97;;;8.70;99.90;;;;;;4140804;28;20374;-81
2021/03/17 10:02:01;;;;;;;6.18;2.70;;;8.80;99.90;;;;;;4130214;28;20037;-80
2021/03/17 10:04:02;;;;;;;6.47;2.78;;;8.50;99.90;;;;;;4137473;28;20233;-78
2021/03/17 10:06:03;;;;;;;9.68;2.85;;;8.30;99.90;;;;;;4135497;28;20125;-78
2021/03/17 10:08:08;;;;;;;6.10;2.72;;;8.10;99.90;;;;;;4139479;28;20026;-79
2021/03/17 10:10:09;;;;;;;9.93;2.80;;;8.00;99.90;;;;;;4140744;28;20615;-79
2021/03/17 10:12:15;;;;;;;7.38;2.90;;;7.80;99.90;;;;;;4137662;28;20084;-79
2021/03/17 10:14:18;;;;;;;6.40;3.65;;;7.70;99.90;;;;;;4137003;28;20034;-79
2021/03/17 10:16:19;;;;;;;8.38;3.33;;;7.70;99.90;;;;;;4139394;28;20496;-81
2021/03/17 10:18:19;;;;;;;8.48;2.97;;;7.70;99.90;;;;;;4140795;28;20056;-80
2021/03/17 10:20:29;;;;;;;6.90;3.22;;;7.70;99.90;;;;;;4138882;28;20134;-82
2021/03/17 10:22:30;;;;;;;37.10;4.03;;;7.60;99.90;;;;;;4142955;28;20122;-81
2021/03/17 10:24:46;;;;;;;5.45;2.95;;;7.50;99.90;;;;;;4143356;28;20046;-80
2021/03/17 10:26:47;;;;;;;10.52;3.42;;;7.40;99.90;;;;;;4142520;28;20054;-79
2021/03/17 10:28:48;;;;;;;9.35;3.47;;;7.20;99.90;;;;;;4145065;28;20042;-82
2021/03/17 10:30:53;;;;;;;9.98;3.92;;;7.00;99.90;;;;;;4144681;28;20034;-80
2021/03/17 10:32:55;;;;;;;7.28;3.97;;;7.00;99.90;;;;;;4144287;28;20756;-81
2021/03/17 10:35:04;;;;;;;6.40;3.10;;;7.20;99.90;;;;;;4129164;28;20034;-82
2021/03/17 10:37:10;;;;;;;7.57;3.10;;;7.40;99.90;;;;;;4147356;28;20044;-81
2021/03/17 10:39:10;;;;;;;7.47;3.00;;;7.50;99.90;;;;;;4146714;28;20173;-80
2021/03/17 10:41:11;;;;;;;8.38;2.88;;;7.60;99.90;;;;;;4142742;28;20038;-80
2021/03/17 10:43:14;;;;;;;10.02;2.90;;;7.70;99.90;;;;;;4139901;28;20169;-81
2021/03/17 10:45:18;;;;;;;8.75;3.00;;;7.70;99.90;;;;;;4141649;28;20031;-80
2021/03/17 10:47:25;;;;;;;7.20;2.60;;;7.50;99.90;;;;;;4147423;28;20061;-80
2021/03/17 10:49:26;;;;;;;5.13;3.42;;;7.50;99.90;;;;;;4146647;28;20057;-80
2021/03/17 10:51:28;;;;;;;7.28;2.80;;;7.60;99.90;;;;;;4143486;28;20038;-80
2021/03/17 10:53:34;;;;;;;6.72;2.95;;;7.80;99.90;;;;;;4143657;28;20037;-79
2021/03/17 10:55:35;;;;;;;6.22;3.10;;;7.80;99.90;;;;;;4143275;28;20037;-79